sensor_id;sensor_type;location;lat;lon;timestamp;temperature;humidity
22674;DHT22;11504;43.334;21.918;2022-09-09T00:04:35;23.3;100.0
22674;DHT22;11504;43.334;21.918;2022-09-09T00:09:19;23.3;100.0
22674;DHT22;11504;43.334;21.918;2022-09-09T00:14:22;23.2;100.0
22674;DHT22;11504;43.334;21.918;2022-09-09T00:19:39;23.2;100.0
22674;DHT22;11504;43.334;21.918;2022-09-09T00:24:41;23.2;100.0
22674;DHT22;11504;43.334;21.918;2022-09-09T00:29:33;23.2;100.0
22674;DHT22;11504;43.334;21.918;2022-09-09T00:34:27;23.1;100.0
22674;DHT22;11504;43.334;21.918;2022-09-09T00:39:23;23.1;100.0
22674;DHT22;11504;43.334;21.918;2022-09-09T00:44:25;23.0;100.0
22674;DHT22;11504;43.334;21.918;2022-09-09T00:49:20;23.0;100.0
22674;DHT22;11504;43.334;21.918;2022-09-09T00:54:43;22.9;100.0
22674;DHT22;11504;43.334;21.918;2022-09-09T00:59:55;22.9;100.0
22674;DHT22;11504;43.334;21.918;2022-09-09T01:05:05;22.8;100.0
22674;DHT22;11504;43.334;21.918;2022-09-09T01:10:25;22.8;100.0
22674;DHT22;11504;43.334;21.918;2022-09-09T01:15:30;22.7;100.0
22674;DHT22;11504;43.334;21.918;2022-09-09T01:20:19;22.7;100.0
22674;DHT22;11504;43.334;21.918;2022-09-09T01:25:29;22.6;100.0
22674;DHT22;11504;43.334;21.918;2022-09-09T01:31:11;22.6;100.0
22674;DHT22;11504;43.334;21.918;2022-09-09T01:36:06;22.6;100.0
22674;DHT22;11504;43.334;21.918;2022-09-09T01:41:05;22.6;100.0
22674;DHT22;11504;43.334;21.918;2022-09-09T01:45:42;22.6;100.0
22674;DHT22;11504;43.334;21.918;2022-09-09T01:50:31;22.6;100.0
22674;DHT22;11504;43.334;21.918;2022-09-09T01:55:09;22.5;100.0
22674;DHT22;11504;43.334;21.918;2022-09-09T02:00:01;22.5;100.0
22674;DHT22;11504;43.334;21.918;2022-09-09T02:04:54;22.4;100.0
22674;DHT22;11504;43.334;21.918;2022-09-09T02:10:25;22.4;100.0
22674;DHT22;11504;43.334;21.918;2022-09-09T02:15:44;22.4;100.0
22674;DHT22;11504;43.334;21.918;2022-09-09T02:20:52;22.4;100.0
22674;DHT22;11504;43.334;21.918;2022-09-09T02:25:37;22.4;100.0
22674;DHT22;11504;43.334;21.918;2022-09-09T02:30:22;22.4;100.0
22674;DHT22;11504;43.334;21.918;2022-09-09T02:35:09;22.3;100.0
22674;DHT22;11504;43.334;21.918;2022-09-09T02:40:03;22.3;100.0
22674;DHT22;11504;43.334;21.918;2022-09-09T02:44:50;22.2;100.0
22674;DHT22;11504;43.334;21.918;2022-09-09T02:49:33;22.2;100.0
22674;DHT22;11504;43.334;21.918;2022-09-09T02:54:53;22.1;100.0
22674;DHT22;11504;43.334;21.918;2022-09-09T03:00:06;22.1;100.0
22674;DHT22;11504;43.334;21.918;2022-09-09T03:04:47;22.1;100.0
22674;DHT22;11504;43.334;21.918;2022-09-09T03:09:24;22.1;100.0
22674;DHT22;11504;43.334;21.918;2022-09-09T03:14:02;22.1;100.0
22674;DHT22;11504;43.334;21.918;2022-09-09T03:18:38;22.1;100.0
22674;DHT22;11504;43.334;21.918;2022-09-09T03:23:15;22.1;100.0
22674;DHT22;11504;43.334;21.918;2022-09-09T03:27:53;22.1;100.0
22674;DHT22;11504;43.334;21.918;2022-09-09T03:32:32;22.1;100.0
22674;DHT22;11504;43.334;21.918;2022-09-09T03:37:09;22.1;100.0
22674;DHT22;11504;43.334;21.918;2022-09-09T03:41:46;22.1;100.0
22674;DHT22;11504;43.334;21.918;2022-09-09T03:46:24;22.2;100.0
22674;DHT22;11504;43.334;21.918;2022-09-09T03:51:02;22.2;100.0
22674;DHT22;11504;43.334;21.918;2022-09-09T03:55:43;22.2;100.0
22674;DHT22;11504;43.334;21.918;2022-09-09T04:00:20;22.2;100.0
22674;DHT22;11504;43.334;21.918;2022-09-09T04:04:57;22.2;100.0
22674;DHT22;11504;43.334;21.918;2022-09-09T04:09:34;22.2;100.0
22674;DHT22;11504;43.334;21.918;2022-09-09T04:14:10;22.2;100.0
22674;DHT22;11504;43.334;21.918;2022-09-09T04:18:47;22.2;100.0
22674;DHT22;11504;43.334;21.918;2022-09-09T04:23:24;22.2;100.0
22674;DHT22;11504;43.334;21.918;2022-09-09T04:28:04;22.2;100.0
22674;DHT22;11504;43.334;21.918;2022-09-09T04:32:41;22.2;100.0
22674;DHT22;11504;43.334;21.918;2022-09-09T04:37:18;22.2;100.0
22674;DHT22;11504;43.334;21.918;2022-09-09T04:41:56;22.2;100.0
22674;DHT22;11504;43.334;21.918;2022-09-09T04:46:33;23.0;100.0
22674;DHT22;11504;43.334;21.918;2022-09-09T04:51:12;23.0;100.0
22674;DHT22;11504;43.334;21.918;2022-09-09T04:55:53;23.7;100.0
22674;DHT22;11504;43.334;21.918;2022-09-09T05:00:47;23.7;100.0
22674;DHT22;11504;43.334;21.918;2022-09-09T05:05:24;24.4;100.0
22674;DHT22;11504;43.334;21.918;2022-09-09T05:10:02;24.4;100.0
22674;DHT22;11504;43.334;21.918;2022-09-09T05:14:42;25.0;100.0
22674;DHT22;11504;43.334;21.918;2022-09-09T05:19:20;25.0;100.0
22674;DHT22;11504;43.334;21.918;2022-09-09T05:23:56;26.8;100.0
22674;DHT22;11504;43.334;21.918;2022-09-09T05:28:34;26.8;100.0
22674;DHT22;11504;43.334;21.918;2022-09-09T05:33:11;26.8;100.0
22674;DHT22;11504;43.334;21.918;2022-09-09T05:37:48;28.5;100.0
22674;DHT22;11504;43.334;21.918;2022-09-09T05:42:29;28.5;100.0
22674;DHT22;11504;43.334;21.918;2022-09-09T05:47:07;28.6;100.0
22674;DHT22;11504;43.334;21.918;2022-09-09T05:51:43;28.6;100.0
22674;DHT22;11504;43.334;21.918;2022-09-09T05:56:22;28.8;100.0
22674;DHT22;11504;43.334;21.918;2022-09-09T06:01:06;28.8;100.0
22674;DHT22;11504;43.334;21.918;2022-09-09T06:05:57;27.0;100.0
22674;DHT22;11504;43.334;21.918;2022-09-09T06:10:40;27.0;100.0
22674;DHT22;11504;43.334;21.918;2022-09-09T06:15:16;25.3;100.0
22674;DHT22;11504;43.334;21.918;2022-09-09T06:19:53;25.3;100.0
22674;DHT22;11504;43.334;21.918;2022-09-09T06:24:29;25.0;100.0
22674;DHT22;11504;43.334;21.918;2022-09-09T06:29:07;25.0;100.0
22674;DHT22;11504;43.334;21.918;2022-09-09T06:33:47;25.0;100.0
22674;DHT22;11504;43.334;21.918;2022-09-09T06:38:29;24.6;100.0
22674;DHT22;11504;43.334;21.918;2022-09-09T06:43:06;24.6;100.0
22674;DHT22;11504;43.334;21.918;2022-09-09T06:47:43;24.7;100.0
22674;DHT22;11504;43.334;21.918;2022-09-09T06:52:19;24.7;100.0
22674;DHT22;11504;43.334;21.918;2022-09-09T06:56:56;24.8;100.0
22674;DHT22;11504;43.334;21.918;2022-09-09T07:01:34;24.8;100.0
22674;DHT22;11504;43.334;21.918;2022-09-09T07:06:18;24.7;100.0
22674;DHT22;11504;43.334;21.918;2022-09-09T07:11:07;24.7;100.0
22674;DHT22;11504;43.334;21.918;2022-09-09T07:15:46;24.6;100.0
22674;DHT22;11504;43.334;21.918;2022-09-09T07:20:23;24.6;100.0
22674;DHT22;11504;43.334;21.918;2022-09-09T07:25:00;24.6;100.0
22674;DHT22;11504;43.334;21.918;2022-09-09T07:29:41;24.6;100.0
22674;DHT22;11504;43.334;21.918;2022-09-09T07:34:18;24.6;100.0
22674;DHT22;11504;43.334;21.918;2022-09-09T07:38:57;24.6;100.0
22674;DHT22;11504;43.334;21.918;2022-09-09T07:43:50;24.6;100.0
22674;DHT22;11504;43.334;21.918;2022-09-09T07:48:30;24.5;100.0
22674;DHT22;11504;43.334;21.918;2022-09-09T07:53:08;24.5;100.0
22674;DHT22;11504;43.334;21.918;2022-09-09T07:57:46;24.4;100.0
22674;DHT22;11504;43.334;21.918;2022-09-09T08:02:23;24.4;100.0
22674;DHT22;11504;43.334;21.918;2022-09-09T08:07:01;24.7;100.0
22674;DHT22;11504;43.334;21.918;2022-09-09T08:11:41;24.7;100.0
22674;DHT22;11504;43.334;21.918;2022-09-09T08:16:22;25.0;100.0
22674;DHT22;11504;43.334;21.918;2022-09-09T08:21:12;25.0;100.0
22674;DHT22;11504;43.334;21.918;2022-09-09T08:26:03;25.2;100.0
22674;DHT22;11504;43.334;21.918;2022-09-09T08:30:45;25.2;100.0
22674;DHT22;11504;43.334;21.918;2022-09-09T08:35:21;25.5;100.0
22674;DHT22;11504;43.334;21.918;2022-09-09T08:39:58;25.5;100.0
22674;DHT22;11504;43.334;21.918;2022-09-09T08:44:44;25.4;100.0
22674;DHT22;11504;43.334;21.918;2022-09-09T08:50:05;25.4;100.0
22674;DHT22;11504;43.334;21.918;2022-09-09T08:55:15;25.2;100.0
22674;DHT22;11504;43.334;21.918;2022-09-09T09:00:20;25.2;100.0
22674;DHT22;11504;43.334;21.918;2022-09-09T09:05:19;25.0;100.0
22674;DHT22;11504;43.334;21.918;2022-09-09T09:10:42;25.0;100.0
22674;DHT22;11504;43.334;21.918;2022-09-09T09:15:37;24.8;100.0
22674;DHT22;11504;43.334;21.918;2022-09-09T09:20:34;24.8;100.0
22674;DHT22;11504;43.334;21.918;2022-09-09T09:25:44;24.7;100.0
22674;DHT22;11504;43.334;21.918;2022-09-09T09:30:23;24.7;100.0
22674;DHT22;11504;43.334;21.918;2022-09-09T09:35:18;24.6;100.0
22674;DHT22;11504;43.334;21.918;2022-09-09T09:39:55;24.6;100.0
22674;DHT22;11504;43.334;21.918;2022-09-09T09:44:45;24.4;100.0
22674;DHT22;11504;43.334;21.918;2022-09-09T09:49:22;24.4;100.0
22674;DHT22;11504;43.334;21.918;2022-09-09T09:54:19;24.4;100.0
22674;DHT22;11504;43.334;21.918;2022-09-09T09:59:21;24.2;100.0
22674;DHT22;11504;43.334;21.918;2022-09-09T10:04:16;24.0;100.0
22674;DHT22;11504;43.334;21.918;2022-09-09T10:09:01;24.0;100.0
22674;DHT22;11504;43.334;21.918;2022-09-09T10:14:15;23.7;100.0
22674;DHT22;11504;43.334;21.918;2022-09-09T10:20:00;23.7;100.0
22674;DHT22;11504;43.334;21.918;2022-09-09T10:26:01;24.0;100.0
22674;DHT22;11504;43.334;21.918;2022-09-09T10:31:46;24.0;100.0
22674;DHT22;11504;43.334;21.918;2022-09-09T10:37:41;24.3;100.0
22674;DHT22;11504;43.334;21.918;2022-09-09T10:43:07;24.3;100.0
22674;DHT22;11504;43.334;21.918;2022-09-09T10:49:07;25.1;100.0
22674;DHT22;11504;43.334;21.918;2022-09-09T10:55:09;25.9;100.0
22674;DHT22;11504;43.334;21.918;2022-09-09T11:00:06;25.9;100.0
22674;DHT22;11504;43.334;21.918;2022-09-09T11:05:07;26.0;100.0
22674;DHT22;11504;43.334;21.918;2022-09-09T11:10:11;26.0;100.0
22674;DHT22;11504;43.334;21.918;2022-09-09T11:15:22;26.1;100.0
22674;DHT22;11504;43.334;21.918;2022-09-09T11:20:21;26.1;100.0
22674;DHT22;11504;43.334;21.918;2022-09-09T11:25:05;26.4;100.0
22674;DHT22;11504;43.334;21.918;2022-09-09T11:30:15;26.4;100.0
22674;DHT22;11504;43.334;21.918;2022-09-09T11:35:19;26.7;100.0
22674;DHT22;11504;43.334;21.918;2022-09-09T11:40:41;26.7;100.0
22674;DHT22;11504;43.334;21.918;2022-09-09T11:45:23;26.6;100.0
22674;DHT22;11504;43.334;21.918;2022-09-09T11:50:08;26.6;100.0
22674;DHT22;11504;43.334;21.918;2022-09-09T11:55:24;26.4;100.0
22674;DHT22;11504;43.334;21.918;2022-09-09T12:00:32;26.4;100.0
22674;DHT22;11504;43.334;21.918;2022-09-09T12:05:18;26.4;100.0
22674;DHT22;11504;43.334;21.918;2022-09-09T12:09:58;26.4;100.0
22674;DHT22;11504;43.334;21.918;2022-09-09T12:15:24;26.4;100.0
22674;DHT22;11504;43.334;21.918;2022-09-09T12:20:12;26.4;100.0
22674;DHT22;11504;43.334;21.918;2022-09-09T12:25:05;26.8;100.0
22674;DHT22;11504;43.334;21.918;2022-09-09T12:30:29;26.8;100.0
22674;DHT22;11504;43.334;21.918;2022-09-09T12:35:43;27.3;100.0
22674;DHT22;11504;43.334;21.918;2022-09-09T12:40:35;27.3;100.0
22674;DHT22;11504;43.334;21.918;2022-09-09T12:45:17;27.1;100.0
22674;DHT22;11504;43.334;21.918;2022-09-09T12:50:15;27.1;100.0
22674;DHT22;11504;43.334;21.918;2022-09-09T12:55:17;26.9;100.0
22674;DHT22;11504;43.334;21.918;2022-09-09T13:00:16;26.9;100.0
22674;DHT22;11504;43.334;21.918;2022-09-09T13:05:09;26.8;100.0
22674;DHT22;11504;43.334;21.918;2022-09-09T13:10:11;26.8;100.0
22674;DHT22;11504;43.334;21.918;2022-09-09T13:15:24;26.8;100.0
22674;DHT22;11504;43.334;21.918;2022-09-09T13:20:16;26.8;100.0
22674;DHT22;11504;43.334;21.918;2022-09-09T13:25:03;26.6;100.0
22674;DHT22;11504;43.334;21.918;2022-09-09T13:30:20;26.6;100.0
22674;DHT22;11504;43.334;21.918;2022-09-09T13:35:23;26.5;100.0
22674;DHT22;11504;43.334;21.918;2022-09-09T13:40:02;26.5;100.0
22674;DHT22;11504;43.334;21.918;2022-09-09T13:44:59;26.4;100.0
22674;DHT22;11504;43.334;21.918;2022-09-09T13:49:38;26.4;100.0
22674;DHT22;11504;43.334;21.918;2022-09-09T13:54:16;26.4;100.0
22674;DHT22;11504;43.334;21.918;2022-09-09T13:58:56;26.3;100.0
22674;DHT22;11504;43.334;21.918;2022-09-09T14:03:33;26.3;100.0
22674;DHT22;11504;43.334;21.918;2022-09-09T14:08:16;26.2;100.0
22674;DHT22;11504;43.334;21.918;2022-09-09T14:13:03;26.2;100.0
22674;DHT22;11504;43.334;21.918;2022-09-09T14:17:39;26.2;100.0
22674;DHT22;11504;43.334;21.918;2022-09-09T14:22:16;26.2;100.0
22674;DHT22;11504;43.334;21.918;2022-09-09T14:26:54;26.0;100.0
22674;DHT22;11504;43.334;21.918;2022-09-09T14:31:32;26.0;100.0
22674;DHT22;11504;43.334;21.918;2022-09-09T14:36:09;25.9;100.0
22674;DHT22;11504;43.334;21.918;2022-09-09T14:40:48;25.9;100.0
22674;DHT22;11504;43.334;21.918;2022-09-09T14:45:24;26.0;100.0
22674;DHT22;11504;43.334;21.918;2022-09-09T14:50:02;26.0;100.0
22674;DHT22;11504;43.334;21.918;2022-09-09T14:54:42;26.0;100.0
22674;DHT22;11504;43.334;21.918;2022-09-09T14:59:18;26.0;100.0
22674;DHT22;11504;43.334;21.918;2022-09-09T15:03:56;26.0;100.0
22674;DHT22;11504;43.334;21.918;2022-09-09T15:08:42;26.0;100.0
22674;DHT22;11504;43.334;21.918;2022-09-09T15:13:27;26.0;100.0
22674;DHT22;11504;43.334;21.918;2022-09-09T15:18:05;25.9;100.0
22674;DHT22;11504;43.334;21.918;2022-09-09T15:22:42;25.9;100.0
22674;DHT22;11504;43.334;21.918;2022-09-09T15:27:19;26.0;100.0
22674;DHT22;11504;43.334;21.918;2022-09-09T15:31:57;26.0;100.0
22674;DHT22;11504;43.334;21.918;2022-09-09T15:36:35;26.1;100.0
22674;DHT22;11504;43.334;21.918;2022-09-09T15:41:21;26.1;100.0
22674;DHT22;11504;43.334;21.918;2022-09-09T15:46:21;26.0;100.0
22674;DHT22;11504;43.334;21.918;2022-09-09T15:51:11;26.0;100.0
22674;DHT22;11504;43.334;21.918;2022-09-09T15:55:54;26.0;100.0
22674;DHT22;11504;43.334;21.918;2022-09-09T16:00:31;26.0;100.0
22674;DHT22;11504;43.334;21.918;2022-09-09T16:05:08;25.9;100.0
22674;DHT22;11504;43.334;21.918;2022-09-09T16:09:45;25.9;100.0
22674;DHT22;11504;43.334;21.918;2022-09-09T16:14:22;25.9;100.0
22674;DHT22;11504;43.334;21.918;2022-09-09T16:19:03;25.8;100.0
22674;DHT22;11504;43.334;21.918;2022-09-09T16:23:49;25.8;100.0
22674;DHT22;11504;43.334;21.918;2022-09-09T16:28:28;25.6;100.0
22674;DHT22;11504;43.334;21.918;2022-09-09T16:33:05;25.6;100.0
22674;DHT22;11504;43.334;21.918;2022-09-09T16:37:41;25.4;100.0
22674;DHT22;11504;43.334;21.918;2022-09-09T16:42:18;25.4;100.0
22674;DHT22;11504;43.334;21.918;2022-09-09T16:46:54;25.3;100.0
22674;DHT22;11504;43.334;21.918;2022-09-09T16:51:33;25.3;100.0
22674;DHT22;11504;43.334;21.918;2022-09-09T16:56:18;25.2;100.0
22674;DHT22;11504;43.334;21.918;2022-09-09T17:01:04;25.2;100.0
22674;DHT22;11504;43.334;21.918;2022-09-09T17:05:41;25.2;100.0
22674;DHT22;11504;43.334;21.918;2022-09-09T17:10:18;25.2;100.0
22674;DHT22;11504;43.334;21.918;2022-09-09T17:14:55;25.1;100.0
22674;DHT22;11504;43.334;21.918;2022-09-09T17:19:32;25.1;100.0
22674;DHT22;11504;43.334;21.918;2022-09-09T17:24:10;25.1;100.0
22674;DHT22;11504;43.334;21.918;2022-09-09T17:28:47;25.0;100.0
22674;DHT22;11504;43.334;21.918;2022-09-09T17:33:24;25.0;100.0
22674;DHT22;11504;43.334;21.918;2022-09-09T17:38:01;25.0;100.0
22674;DHT22;11504;43.334;21.918;2022-09-09T17:42:37;25.0;100.0
22674;DHT22;11504;43.334;21.918;2022-09-09T17:47:14;24.9;100.0
22674;DHT22;11504;43.334;21.918;2022-09-09T17:51:51;24.9;100.0
22674;DHT22;11504;43.334;21.918;2022-09-09T17:56:30;24.8;100.0
22674;DHT22;11504;43.334;21.918;2022-09-09T18:01:16;24.8;100.0
22674;DHT22;11504;43.334;21.918;2022-09-09T18:06:08;24.8;100.0
22674;DHT22;11504;43.334;21.918;2022-09-09T18:11:01;24.8;100.0
22674;DHT22;11504;43.334;21.918;2022-09-09T18:15:44;24.7;100.0
22674;DHT22;11504;43.334;21.918;2022-09-09T18:20:21;24.7;100.0
22674;DHT22;11504;43.334;21.918;2022-09-09T18:24:58;24.7;100.0
22674;DHT22;11504;43.334;21.918;2022-09-09T18:29:35;24.7;100.0
22674;DHT22;11504;43.334;21.918;2022-09-09T18:34:14;24.7;100.0
22674;DHT22;11504;43.334;21.918;2022-09-09T18:38:59;24.7;100.0
22674;DHT22;11504;43.334;21.918;2022-09-09T18:43:44;24.7;100.0
22674;DHT22;11504;43.334;21.918;2022-09-09T18:48:20;24.6;100.0
22674;DHT22;11504;43.334;21.918;2022-09-09T18:52:57;24.6;100.0
22674;DHT22;11504;43.334;21.918;2022-09-09T18:57:34;24.5;100.0
22674;DHT22;11504;43.334;21.918;2022-09-09T19:02:12;24.5;100.0
22674;DHT22;11504;43.334;21.918;2022-09-09T19:06:49;24.4;100.0
22674;DHT22;11504;43.334;21.918;2022-09-09T19:11:27;24.4;100.0
22674;DHT22;11504;43.334;21.918;2022-09-09T19:16:04;24.4;100.0
22674;DHT22;11504;43.334;21.918;2022-09-09T19:20:48;24.4;100.0
22674;DHT22;11504;43.334;21.918;2022-09-09T19:25:25;24.2;100.0
22674;DHT22;11504;43.334;21.918;2022-09-09T19:30:03;24.2;100.0
22674;DHT22;11504;43.334;21.918;2022-09-09T19:34:44;24.1;100.0
22674;DHT22;11504;43.334;21.918;2022-09-09T19:39:20;24.1;100.0
22674;DHT22;11504;43.334;21.918;2022-09-09T19:43:58;24.1;100.0
22674;DHT22;11504;43.334;21.918;2022-09-09T19:48:48;24.0;100.0
22674;DHT22;11504;43.334;21.918;2022-09-09T19:53:25;24.0;100.0
22674;DHT22;11504;43.334;21.918;2022-09-09T19:58:02;23.9;100.0
22674;DHT22;11504;43.334;21.918;2022-09-09T20:02:38;23.9;100.0
22674;DHT22;11504;43.334;21.918;2022-09-09T20:07:14;23.8;100.0
22674;DHT22;11504;43.334;21.918;2022-09-09T20:11:51;23.8;100.0
22674;DHT22;11504;43.334;21.918;2022-09-09T20:16:29;23.8;100.0
22674;DHT22;11504;43.334;21.918;2022-09-09T20:21:11;23.8;100.0
22674;DHT22;11504;43.334;21.918;2022-09-09T20:26:00;23.8;100.0
22674;DHT22;11504;43.334;21.918;2022-09-09T20:30:45;23.8;100.0
22674;DHT22;11504;43.334;21.918;2022-09-09T20:35:27;23.8;100.0
22674;DHT22;11504;43.334;21.918;2022-09-09T20:40:04;23.8;100.0
22674;DHT22;11504;43.334;21.918;2022-09-09T20:44:45;23.8;100.0
22674;DHT22;11504;43.334;21.918;2022-09-09T20:49:23;23.8;100.0
22674;DHT22;11504;43.334;21.918;2022-09-09T20:54:03;23.8;100.0
22674;DHT22;11504;43.334;21.918;2022-09-09T20:58:54;23.7;100.0
22674;DHT22;11504;43.334;21.918;2022-09-09T21:03:33;23.7;100.0
22674;DHT22;11504;43.334;21.918;2022-09-09T21:08:12;23.6;100.0
22674;DHT22;11504;43.334;21.918;2022-09-09T21:12:49;23.6;100.0
22674;DHT22;11504;43.334;21.918;2022-09-09T21:17:26;23.6;100.0
22674;DHT22;11504;43.334;21.918;2022-09-09T21:22:03;23.6;100.0
22674;DHT22;11504;43.334;21.918;2022-09-09T21:26:40;23.6;100.0
22674;DHT22;11504;43.334;21.918;2022-09-09T21:31:18;23.6;100.0
22674;DHT22;11504;43.334;21.918;2022-09-09T21:36:01;23.5;100.0
22674;DHT22;11504;43.334;21.918;2022-09-09T21:40:46;23.5;100.0
22674;DHT22;11504;43.334;21.918;2022-09-09T21:45:24;23.4;100.0
22674;DHT22;11504;43.334;21.918;2022-09-09T21:50:01;23.4;100.0
22674;DHT22;11504;43.334;21.918;2022-09-09T21:54:39;23.4;100.0
22674;DHT22;11504;43.334;21.918;2022-09-09T21:59:16;23.3;100.0
22674;DHT22;11504;43.334;21.918;2022-09-09T22:03:53;23.3;100.0
22674;DHT22;11504;43.334;21.918;2022-09-09T22:08:29;23.2;100.0
22674;DHT22;11504;43.334;21.918;2022-09-09T22:13:07;23.2;100.0
22674;DHT22;11504;43.334;21.918;2022-09-09T22:17:43;23.2;100.0
22674;DHT22;11504;43.334;21.918;2022-09-09T22:22:20;23.2;100.0
22674;DHT22;11504;43.334;21.918;2022-09-09T22:26:57;23.1;100.0
22674;DHT22;11504;43.334;21.918;2022-09-09T22:31:34;23.1;100.0
22674;DHT22;11504;43.334;21.918;2022-09-09T22:36:11;23.0;100.0
22674;DHT22;11504;43.334;21.918;2022-09-09T22:40:48;23.0;100.0
22674;DHT22;11504;43.334;21.918;2022-09-09T22:45:25;22.8;100.0
22674;DHT22;11504;43.334;21.918;2022-09-09T22:50:02;22.8;100.0
22674;DHT22;11504;43.334;21.918;2022-09-09T22:54:42;22.8;100.0
22674;DHT22;11504;43.334;21.918;2022-09-09T22:59:18;22.7;100.0
22674;DHT22;11504;43.334;21.918;2022-09-09T23:03:56;22.7;100.0
22674;DHT22;11504;43.334;21.918;2022-09-09T23:08:35;22.6;100.0
22674;DHT22;11504;43.334;21.918;2022-09-09T23:13:13;22.6;100.0
22674;DHT22;11504;43.334;21.918;2022-09-09T23:17:50;22.5;100.0
22674;DHT22;11504;43.334;21.918;2022-09-09T23:22:28;22.5;100.0
22674;DHT22;11504;43.334;21.918;2022-09-09T23:27:06;22.4;100.0
22674;DHT22;11504;43.334;21.918;2022-09-09T23:31:44;22.4;100.0
22674;DHT22;11504;43.334;21.918;2022-09-09T23:36:23;22.2;100.0
22674;DHT22;11504;43.334;21.918;2022-09-09T23:41:08;22.2;100.0
22674;DHT22;11504;43.334;21.918;2022-09-09T23:45:54;22.0;100.0
22674;DHT22;11504;43.334;21.918;2022-09-09T23:50:32;22.0;100.0
22674;DHT22;11504;43.334;21.918;2022-09-09T23:55:09;21.9;100.0
22674;DHT22;11504;43.334;21.918;2022-09-09T23:59:46;21.9;100.0
